Time;durP1;ratioP1;P1;durP2;ratioP2;P2;SDS_P1;SDS_P2;PMS_P1;PMS_P2;Temp;Humidity;BMP_temperature;BMP_pressure;BME280_temperature;BME280_humidity;BME280_pressure;Samples;Min_cycle;Max_cycle;Signal;HPM_P1;HPM_P2
2021/01/24 00:01:46;;;;;;;2.22;2.13;;;3.60;81.80;;;;;;4997019;28;20397;-64
2021/01/24 00:04:12;;;;;;;1.90;1.80;;;3.60;81.90;;;;;;4997224;28;20022;-64
2021/01/24 00:06:38;;;;;;;1.50;1.40;;;3.60;81.90;;;;;;4978890;28;20065;-64
2021/01/24 00:09:05;;;;;;;1.70;1.60;;;3.70;81.80;;;;;;4997084;28;20540;-64
2021/01/24 00:11:30;;;;;;;1.20;1.15;;;3.70;82.00;;;;;;4998406;28;20046;-64
2021/01/24 00:13:56;;;;;;;2.33;0.98;;;3.70;81.80;;;;;;4996825;28;20034;-66
2021/01/24 00:16:22;;;;;;;1.33;1.02;;;3.70;81.70;;;;;;4997582;28;20065;-64
2021/01/24 00:18:47;;;;;;;0.75;0.75;;;3.70;81.70;;;;;;4995550;28;20089;-62
2021/01/24 00:21:13;;;;;;;0.70;0.70;;;3.70;81.70;;;;;;4996779;28;20038;-65
2021/01/24 00:23:38;;;;;;;0.77;0.70;;;3.70;81.80;;;;;;4979569;28;20402;-65
2021/01/24 00:26:04;;;;;;;0.90;0.70;;;3.80;81.60;;;;;;4997559;28;20583;-64
2021/01/24 00:28:30;;;;;;;0.60;0.60;;;3.80;82.30;;;;;;4996037;28;20045;-62
2021/01/24 00:30:55;;;;;;;0.82;0.70;;;3.80;81.50;;;;;;4996964;28;20117;-64
2021/01/24 00:33:21;;;;;;;0.60;0.60;;;3.80;81.40;;;;;;4987527;28;20035;-64
2021/01/24 00:35:47;;;;;;;0.73;0.70;;;3.80;81.40;;;;;;4987494;28;20117;-65
2021/01/24 00:38:12;;;;;;;0.60;0.60;;;3.80;81.40;;;;;;4997643;28;20037;-65
2021/01/24 00:40:39;;;;;;;0.60;0.60;;;3.80;81.30;;;;;;4977834;28;20034;-65
2021/01/24 00:43:04;;;;;;;0.73;0.73;;;3.80;81.30;;;;;;4981670;28;20034;-64
2021/01/24 00:45:30;;;;;;;1.25;0.88;;;3.80;81.10;;;;;;4980130;28;20041;-64
2021/01/24 00:47:56;;;;;;;0.70;0.70;;;3.80;81.30;;;;;;4997828;28;20414;-65
2021/01/24 00:50:21;;;;;;;0.52;0.52;;;3.80;81.30;;;;;;4996234;28;20109;-65
2021/01/24 00:52:47;;;;;;;1.10;0.70;;;3.80;81.10;;;;;;4996317;28;20498;-65
2021/01/24 00:55:12;;;;;;;0.75;0.75;;;3.80;81.10;;;;;;4998029;28;20193;-64
2021/01/24 00:57:38;;;;;;;0.82;0.82;;;3.80;81.10;;;;;;4995997;28;20045;-64
2021/01/24 01:00:05;;;;;;;1.10;0.80;;;3.80;81.20;;;;;;4997166;28;20095;-65
2021/01/24 01:02:31;;;;;;;0.75;0.75;;;3.80;81.10;;;;;;4980403;28;20031;-64
2021/01/24 01:04:56;;;;;;;0.68;0.68;;;3.70;80.90;;;;;;4996046;28;20034;-65
2021/01/24 01:07:22;;;;;;;0.70;0.70;;;3.80;80.90;;;;;;4980548;28;20034;-65
2021/01/24 01:09:48;;;;;;;0.80;0.60;;;3.80;80.90;;;;;;4997313;28;20034;-66
2021/01/24 01:12:14;;;;;;;1.00;0.90;;;3.80;80.70;;;;;;4997434;28;20042;-65
2021/01/24 01:14:40;;;;;;;1.15;0.80;;;3.80;80.70;;;;;;4997297;28;20671;-66
2021/01/24 01:17:05;;;;;;;0.80;0.80;;;3.70;80.60;;;;;;4997768;28;20030;-65
2021/01/24 01:19:31;;;;;;;0.80;0.80;;;3.70;80.60;;;;;;4997175;28;20030;-65
2021/01/24 01:21:56;;;;;;;0.90;0.90;;;3.70;80.50;;;;;;4998405;28;20177;-65
2021/01/24 01:24:22;;;;;;;1.63;0.80;;;3.70;80.50;;;;;;4980110;28;20046;-66
2021/01/24 01:26:48;;;;;;;1.00;0.90;;;3.70;80.40;;;;;;4980392;28;20034;-65
2021/01/24 01:29:13;;;;;;;1.02;0.90;;;3.70;80.40;;;;;;4997076;28;20411;-64
2021/01/24 01:31:39;;;;;;;0.80;0.80;;;3.60;80.30;;;;;;4997143;28;20038;-65
2021/01/24 01:34:04;;;;;;;1.02;0.93;;;3.60;80.30;;;;;;4996814;28;20501;-66
2021/01/24 01:36:30;;;;;;;1.63;1.02;;;3.60;80.30;;;;;;4979331;28;20030;-65
2021/01/24 01:38:58;;;;;;;0.95;0.95;;;3.60;80.40;;;;;;4996026;28;20046;-66
2021/01/24 01:41:31;;;;;;;1.10;1.00;;;3.60;80.40;;;;;;4997081;28;20034;-65
2021/01/24 01:43:58;;;;;;;0.97;0.90;;;3.60;80.50;;;;;;4979762;28;20038;-65
2021/01/24 01:46:26;;;;;;;1.00;0.90;;;3.60;80.50;;;;;;4980005;28;20493;-65
2021/01/24 01:48:52;;;;;;;1.60;1.10;;;3.60;80.60;;;;;;4995670;28;20414;-65
2021/01/24 01:51:18;;;;;;;1.25;1.10;;;3.50;80.50;;;;;;4996400;28;20128;-65
2021/01/24 01:53:44;;;;;;;2.03;1.00;;;3.50;80.60;;;;;;4983832;28;20039;-66
2021/01/24 01:56:11;;;;;;;1.02;0.82;;;3.50;80.60;;;;;;5001066;28;20409;-65
2021/01/24 01:58:36;;;;;;;1.10;1.00;;;3.50;80.60;;;;;;4998594;28;20027;-64
2021/01/24 02:01:07;;;;;;;1.00;0.90;;;3.50;80.70;;;;;;4984253;28;20017;-65
2021/01/24 02:03:55;;;;;;;1.00;0.90;;;3.40;80.70;;;;;;4983764;28;20119;-65
2021/01/24 02:06:42;;;;;;;1.20;0.88;;;3.50;81.00;;;;;;4984248;28;20061;-65
2021/01/24 02:09:13;;;;;;;1.00;1.00;;;3.40;80.70;;;;;;4981836;28;20064;-64
2021/01/24 02:11:49;;;;;;;2.10;1.10;;;3.40;80.80;;;;;;4999938;28;20568;-66
2021/01/24 02:14:32;;;;;;;1.38;0.95;;;3.40;80.90;;;;;;5001010;28;20589;-65
2021/01/24 02:17:02;;;;;;;0.80;0.80;;;3.50;81.20;;;;;;4999049;28;20034;-66
2021/01/24 02:20:05;;;;;;;1.17;0.85;;;3.50;80.90;;;;;;5000123;28;20457;-65
2021/01/24 02:22:36;;;;;;;1.95;0.85;;;3.50;81.10;;;;;;4998712;28;20092;-64
2021/01/24 02:25:25;;;;;;;1.33;0.80;;;3.50;80.80;;;;;;5000993;28;20557;-66
2021/01/24 02:28:28;;;;;;;1.10;0.90;;;3.50;80.90;;;;;;4998670;28;20414;-65
2021/01/24 02:30:55;;;;;;;1.13;0.80;;;3.50;80.70;;;;;;4995034;28;20043;-65
2021/01/24 02:33:25;;;;;;;0.80;0.80;;;3.50;80.60;;;;;;4980842;28;20110;-65
2021/01/24 02:35:54;;;;;;;1.98;0.90;;;3.50;80.50;;;;;;4980355;28;20062;-65
2021/01/24 02:38:22;;;;;;;1.85;0.88;;;3.50;80.60;;;;;;4979272;28;20026;-66
2021/01/24 02:40:48;;;;;;;1.60;0.80;;;3.50;80.60;;;;;;4972422;28;20255;-64
2021/01/24 02:43:15;;;;;;;1.25;0.80;;;3.50;80.60;;;;;;5000257;28;20503;-65
2021/01/24 02:45:44;;;;;;;1.05;0.60;;;3.50;80.60;;;;;;4980471;28;20026;-63
2021/01/24 02:48:12;;;;;;;1.65;0.80;;;3.40;80.60;;;;;;4998921;28;20053;-65
2021/01/24 02:50:40;;;;;;;1.20;0.82;;;3.50;80.60;;;;;;4978144;28;20113;-64
2021/01/24 02:53:05;;;;;;;1.75;0.63;;;3.40;80.40;;;;;;4978863;28;20045;-65
2021/01/24 02:55:32;;;;;;;1.45;0.70;;;3.40;80.40;;;;;;4981576;28;20128;-64
2021/01/24 02:57:58;;;;;;;1.02;0.70;;;3.50;80.40;;;;;;4962312;28;20081;-65
2021/01/24 03:00:25;;;;;;;1.25;0.70;;;3.50;80.40;;;;;;4980072;28;20034;-65
2021/01/24 03:02:50;;;;;;;0.82;0.70;;;3.50;81.20;;;;;;4981375;28;20093;-65
2021/01/24 03:05:16;;;;;;;0.63;0.60;;;3.50;80.30;;;;;;4982263;28;20042;-64
2021/01/24 03:07:46;;;;;;;0.90;0.73;;;3.40;80.20;;;;;;4980118;28;20031;-64
2021/01/24 03:10:12;;;;;;;0.80;0.80;;;3.40;80.10;;;;;;4961416;28;20050;-63
2021/01/24 03:12:59;;;;;;;0.60;0.60;;;3.40;80.10;;;;;;4979746;28;20861;-64
2021/01/24 03:15:27;;;;;;;2.42;0.60;;;3.40;80.00;;;;;;4980410;28;20037;-65
2021/01/24 03:17:55;;;;;;;0.63;0.57;;;3.50;80.00;;;;;;4979618;28;20034;-63
2021/01/24 03:20:22;;;;;;;1.33;0.50;;;3.40;80.00;;;;;;4978412;28;20481;-66
2021/01/24 03:22:49;;;;;;;0.98;0.60;;;3.50;80.20;;;;;;4979470;28;20038;-64
2021/01/24 03:25:15;;;;;;;0.80;0.80;;;3.40;80.50;;;;;;4977595;28;20473;-64
2021/01/24 03:27:42;;;;;;;1.13;0.52;;;3.50;80.90;;;;;;4977438;28;20118;-66
2021/01/24 03:30:08;;;;;;;0.40;0.40;;;3.40;80.90;;;;;;4959657;28;20041;-65
2021/01/24 03:32:34;;;;;;;0.25;0.25;;;3.40;81.30;;;;;;4977359;28;20410;-65
2021/01/24 03:35:00;;;;;;;0.75;0.38;;;3.30;81.20;;;;;;4978200;28;20034;-66
2021/01/24 03:37:25;;;;;;;0.30;0.20;;;3.30;81.30;;;;;;4979580;28;20050;-65
2021/01/24 03:39:51;;;;;;;0.20;0.20;;;3.20;81.10;;;;;;4989676;28;20034;-64
2021/01/24 03:42:16;;;;;;;0.10;0.10;;;3.20;80.70;;;;;;4964619;28;20026;-64
2021/01/24 03:44:42;;;;;;;0.35;0.20;;;3.20;80.20;;;;;;4960324;28;20049;-64
2021/01/24 03:47:08;;;;;;;0.75;0.10;;;3.20;79.90;;;;;;4979809;28;20043;-66
2021/01/24 03:49:33;;;;;;;0.17;0.17;;;3.10;79.70;;;;;;4961995;28;20030;-64
2021/01/24 03:51:59;;;;;;;0.22;0.20;;;3.10;79.50;;;;;;4978981;28;20085;-64
2021/01/24 03:54:24;;;;;;;0.38;0.30;;;3.10;79.30;;;;;;4975698;28;20117;-65
2021/01/24 03:56:50;;;;;;;0.30;0.20;;;3.10;79.20;;;;;;4993582;28;20030;-66
2021/01/24 03:59:15;;;;;;;0.10;0.10;;;3.10;79.20;;;;;;4960628;28;20031;-66
2021/01/24 04:01:41;;;;;;;0.17;0.17;;;3.10;79.10;;;;;;4977633;28;20128;-65
2021/01/24 04:04:07;;;;;;;0.45;0.25;;;3.10;79.80;;;;;;4978507;28;20038;-65
2021/01/24 04:06:32;;;;;;;0.28;0.28;;;3.00;79.00;;;;;;4978277;28;20042;-65
2021/01/24 04:08:58;;;;;;;0.13;0.13;;;3.00;78.90;;;;;;4976128;28;20797;-65
2021/01/24 04:11:23;;;;;;;0.47;0.20;;;3.00;78.90;;;;;;4978439;28;20113;-62
2021/01/24 04:13:49;;;;;;;0.20;0.20;;;3.00;78.80;;;;;;4977262;28;20160;-66
2021/01/24 04:16:15;;;;;;;0.20;0.15;;;2.90;78.80;;;;;;4968162;28;20043;-64
2021/01/24 04:18:40;;;;;;;0.28;0.15;;;2.90;78.80;;;;;;4976484;28;20085;-66
2021/01/24 04:21:06;;;;;;;0.10;0.10;;;2.90;78.60;;;;;;4967681;28;20069;-65
2021/01/24 04:23:32;;;;;;;0.25;0.20;;;2.90;78.50;;;;;;4994287;28;20486;-65
2021/01/24 04:25:58;;;;;;;0.20;0.20;;;2.90;78.30;;;;;;4998383;28;20104;-64
2021/01/24 04:28:24;;;;;;;0.10;0.10;;;2.80;78.00;;;;;;4977643;28;20041;-65
2021/01/24 04:30:50;;;;;;;0.13;0.10;;;2.80;77.60;;;;;;4981473;28;20145;-64
2021/01/24 04:33:15;;;;;;;0.17;0.10;;;2.70;77.60;;;;;;4998930;28;20149;-66
2021/01/24 04:35:41;;;;;;;0.57;0.22;;;2.70;77.60;;;;;;4999107;28;20034;-65
2021/01/24 04:38:07;;;;;;;0.10;0.10;;;2.70;77.40;;;;;;4996101;28;20034;-65
2021/01/24 04:40:32;;;;;;;0.38;0.20;;;2.60;77.40;;;;;;4996617;28;20038;-63
2021/01/24 04:42:58;;;;;;;0.28;0.20;;;2.60;77.30;;;;;;4998385;28;20110;-65
2021/01/24 04:45:24;;;;;;;0.17;0.17;;;2.60;77.10;;;;;;4997195;28;20117;-64
2021/01/24 04:47:51;;;;;;;0.22;0.10;;;2.50;77.00;;;;;;4995507;28;20038;-67
2021/01/24 04:50:18;;;;;;;0.40;0.20;;;2.50;77.20;;;;;;4995444;28;20117;-62
2021/01/24 04:52:44;;;;;;;0.73;0.38;;;2.50;77.30;;;;;;4996438;28;20037;-68
2021/01/24 04:55:10;;;;;;;1.90;0.80;;;2.50;77.30;;;;;;4980414;28;20038;-64
2021/01/24 04:57:36;;;;;;;10.27;4.05;;;2.40;77.10;;;;;;4978753;28;20030;-66
2021/01/24 05:00:04;;;;;;;2.63;1.25;;;2.40;77.10;;;;;;4998167;28;20441;-61
2021/01/24 05:02:30;;;;;;;1.67;0.43;;;2.40;76.90;;;;;;4994785;28;20034;-65
2021/01/24 05:04:56;;;;;;;0.30;0.30;;;2.40;76.90;;;;;;4980096;28;20023;-66
2021/01/24 05:07:21;;;;;;;0.65;0.50;;;2.40;76.80;;;;;;4995185;28;20140;-64
2021/01/24 05:09:47;;;;;;;2.35;1.90;;;2.40;76.80;;;;;;4995204;28;20493;-67
2021/01/24 05:12:14;;;;;;;0.63;0.50;;;2.30;77.00;;;;;;4978297;28;20084;-66
2021/01/24 05:14:40;;;;;;;0.90;0.52;;;2.40;77.10;;;;;;4995263;28;20061;-64
2021/01/24 05:17:06;;;;;;;2.25;1.70;;;2.40;77.10;;;;;;4996403;28;20030;-66
2021/01/24 05:19:37;;;;;;;0.70;0.70;;;2.40;77.00;;;;;;4994803;28;20780;-65
2021/01/24 05:22:04;;;;;;;0.73;0.73;;;2.40;76.70;;;;;;4996308;28;20037;-65
2021/01/24 05:24:31;;;;;;;1.95;1.73;;;2.40;76.60;;;;;;4994184;28;20164;-64
2021/01/24 05:27:07;;;;;;;0.85;0.80;;;2.40;76.50;;;;;;4999645;28;20042;-65
2021/01/24 05:29:35;;;;;;;0.30;0.30;;;2.30;77.20;;;;;;4982514;28;20034;-66
2021/01/24 05:32:01;;;;;;;1.65;1.35;;;2.30;76.40;;;;;;5001734;28;20131;-65
2021/01/24 05:34:28;;;;;;;1.65;1.55;;;2.30;76.30;;;;;;4999757;28;20121;-65
2021/01/24 05:36:55;;;;;;;1.45;1.15;;;2.30;76.20;;;;;;4982449;28;20034;-63
2021/01/24 05:39:21;;;;;;;0.80;0.40;;;2.30;76.00;;;;;;4980538;28;20035;-64
2021/01/24 05:41:48;;;;;;;0.85;0.40;;;2.20;75.90;;;;;;5000856;28;20501;-65
2021/01/24 05:44:15;;;;;;;0.40;0.40;;;2.20;75.80;;;;;;5000722;28;20042;-65
2021/01/24 05:46:41;;;;;;;0.38;0.32;;;2.20;75.80;;;;;;5001158;28;20045;-66
2021/01/24 05:49:08;;;;;;;0.40;0.40;;;2.10;76.00;;;;;;5000138;28;20034;-64
2021/01/24 05:51:34;;;;;;;2.22;2.10;;;2.10;76.00;;;;;;5000027;28;20038;-64
2021/01/24 05:54:00;;;;;;;0.77;0.68;;;2.00;75.90;;;;;;4983377;28;20499;-64
2021/01/24 05:56:25;;;;;;;0.50;0.47;;;2.00;76.20;;;;;;4999553;28;20037;-65
2021/01/24 05:58:56;;;;;;;0.43;0.43;;;2.00;76.10;;;;;;4999143;28;20033;-66
2021/01/24 06:01:23;;;;;;;0.70;0.68;;;1.90;76.00;;;;;;4983686;28;20068;-65
2021/01/24 06:03:50;;;;;;;6.28;0.50;;;1.90;76.20;;;;;;4984003;28;20105;-65
2021/01/24 06:06:16;;;;;;;0.43;0.38;;;1.80;76.10;;;;;;5002027;28;20056;-65
2021/01/24 06:08:41;;;;;;;0.80;0.57;;;1.80;76.30;;;;;;4998663;28;20506;-66
2021/01/24 06:11:08;;;;;;;0.90;0.50;;;1.80;76.20;;;;;;4999286;28;20045;-65
2021/01/24 06:13:34;;;;;;;0.45;0.40;;;1.70;76.40;;;;;;5001167;28;20471;-66
2021/01/24 06:16:07;;;;;;;1.25;0.57;;;1.70;76.40;;;;;;5001148;28;20799;-64
2021/01/24 06:18:41;;;;;;;0.68;0.50;;;1.70;76.40;;;;;;4982122;28;20465;-64
2021/01/24 06:21:11;;;;;;;;;;;1.60;76.40;;;;;;5001545;28;20084;-65
2021/01/24 06:23:43;;;;;;;0.52;0.25;;;1.60;76.30;;;;;;4983159;28;20426;-64
2021/01/24 06:26:12;;;;;;;0.50;0.50;;;1.60;77.30;;;;;;5000799;28;20088;-65
2021/01/24 06:28:42;;;;;;;0.75;0.75;;;1.60;76.30;;;;;;4999068;28;20039;-65
2021/01/24 06:31:16;;;;;;;1.30;1.20;;;1.60;76.30;;;;;;4998262;28;20105;-59
2021/01/24 06:33:50;;;;;;;0.68;0.60;;;1.50;76.10;;;;;;4982476;28;20077;-64
2021/01/24 06:36:15;;;;;;;0.68;0.50;;;1.50;76.00;;;;;;4980968;28;20237;-66
2021/01/24 06:38:44;;;;;;;0.50;0.50;;;1.40;76.00;;;;;;4996575;28;20557;-64
2021/01/24 06:41:11;;;;;;;1.42;1.00;;;1.40;75.90;;;;;;4998416;28;20379;-65
2021/01/24 06:43:46;;;;;;;3.17;1.70;;;1.40;75.70;;;;;;4999193;28;20081;-65
2021/01/24 06:46:21;;;;;;;2.20;1.25;;;1.30;75.60;;;;;;4990659;28;20401;-65
2021/01/24 06:48:50;;;;;;;;;;;1.30;75.60;;;;;;4998198;28;20046;-66
2021/01/24 06:51:32;;;;;;;0.90;0.90;;;1.30;75.30;;;;;;4983835;28;19948;-65
2021/01/24 06:54:02;;;;;;;0.80;0.50;;;1.20;75.20;;;;;;5000424;28;20034;-65
2021/01/24 06:56:43;;;;;;;1.05;0.70;;;1.20;75.40;;;;;;5001040;28;20521;-65
2021/01/24 06:59:10;;;;;;;1.00;0.90;;;1.20;75.00;;;;;;4978302;28;20732;-65
2021/01/24 07:01:36;;;;;;;1.05;0.95;;;1.10;75.20;;;;;;4990111;28;20104;-65
2021/01/24 07:04:19;;;;;;;1.80;1.52;;;1.10;75.20;;;;;;4990400;28;20038;-64
2021/01/24 07:06:46;;;;;;;1.30;1.20;;;1.10;74.90;;;;;;4990453;28;20038;-67
2021/01/24 07:09:24;;;;;;;1.50;1.10;;;1.10;75.00;;;;;;4990276;28;20036;-65
2021/01/24 07:11:54;;;;;;;1.25;1.10;;;1.00;74.80;;;;;;4984980;28;20103;-64
2021/01/24 07:14:32;;;;;;;1.85;1.45;;;1.00;74.90;;;;;;4987358;28;20033;-65
2021/01/24 07:17:18;;;;;;;1.38;1.20;;;1.00;74.50;;;;;;4996489;28;20392;-65
2021/01/24 07:19:48;;;;;;;2.05;1.35;;;1.00;74.30;;;;;;4998418;28;20064;-65
2021/01/24 07:22:15;;;;;;;2.28;1.80;;;1.00;74.50;;;;;;4998591;28;20061;-64
2021/01/24 07:24:42;;;;;;;1.80;1.67;;;0.90;74.50;;;;;;4998706;28;20045;-65
2021/01/24 07:27:10;;;;;;;1.58;1.40;;;0.90;74.60;;;;;;4997812;28;20038;-65
2021/01/24 07:29:36;;;;;;;2.13;1.42;;;0.90;74.30;;;;;;4987333;28;20046;-65
2021/01/24 07:32:10;;;;;;;1.60;1.33;;;0.90;74.50;;;;;;4998549;28;20031;-65
2021/01/24 07:34:36;;;;;;;2.20;1.87;;;0.90;74.50;;;;;;4997822;28;20070;-65
2021/01/24 07:37:04;;;;;;;2.00;1.55;;;0.90;74.70;;;;;;4986946;28;20648;-65
2021/01/24 07:39:30;;;;;;;2.45;1.85;;;0.90;74.60;;;;;;4998409;28;20042;-65
2021/01/24 07:41:56;;;;;;;1.83;1.73;;;0.90;74.80;;;;;;4999278;28;20034;-64
2021/01/24 07:44:22;;;;;;;2.60;1.95;;;0.90;74.60;;;;;;4996116;28;20037;-65
2021/01/24 07:46:47;;;;;;;11.68;6.78;;;0.90;74.60;;;;;;4982416;28;20517;-64
2021/01/24 07:49:13;;;;;;;7.07;4.65;;;0.90;74.50;;;;;;4980555;28;20034;-63
2021/01/24 07:51:39;;;;;;;13.70;6.43;;;0.90;74.30;;;;;;4999995;28;20061;-64
2021/01/24 07:54:05;;;;;;;8.45;5.75;;;0.90;74.00;;;;;;4982898;28;20069;-65
2021/01/24 07:56:31;;;;;;;3.92;3.13;;;0.90;73.80;;;;;;4998824;28;20038;-64
2021/01/24 07:58:57;;;;;;;4.65;4.10;;;0.90;73.60;;;;;;4980158;28;20176;-65
2021/01/24 08:01:23;;;;;;;5.15;2.30;;;0.90;73.60;;;;;;4977950;28;20045;-64
2021/01/24 08:03:48;;;;;;;5.82;4.05;;;0.90;73.60;;;;;;4995871;28;20445;-65
2021/01/24 08:06:14;;;;;;;5.03;3.92;;;1.00;73.70;;;;;;4996004;28;20030;-64
2021/01/24 08:08:41;;;;;;;5.32;4.47;;;1.00;73.60;;;;;;4996511;28;20758;-65
2021/01/24 08:11:08;;;;;;;3.67;3.03;;;1.00;73.40;;;;;;4992111;28;20619;-65
2021/01/24 08:13:34;;;;;;;4.25;3.20;;;1.00;73.40;;;;;;4979234;28;20572;-65
2021/01/24 08:16:05;;;;;;;4.03;2.60;;;1.00;73.30;;;;;;4995191;28;20034;-65
2021/01/24 08:18:33;;;;;;;3.97;2.72;;;1.00;73.30;;;;;;4996486;28;20117;-63
2021/01/24 08:21:00;;;;;;;2.15;1.92;;;1.00;73.40;;;;;;4978571;28;20037;-64
2021/01/24 08:23:27;;;;;;;2.67;2.20;;;1.00;73.10;;;;;;4998466;28;20093;-65
2021/01/24 08:25:53;;;;;;;2.42;2.10;;;1.00;73.30;;;;;;4996240;28;20032;-65
2021/01/24 08:28:20;;;;;;;3.55;1.98;;;1.00;73.30;;;;;;4997054;28;20029;-65
2021/01/24 08:30:46;;;;;;;2.17;1.90;;;1.00;73.40;;;;;;4994995;28;20606;-65
2021/01/24 08:33:15;;;;;;;2.63;2.00;;;1.00;73.20;;;;;;4997491;28;20067;-65
2021/01/24 08:35:42;;;;;;;3.47;2.20;;;1.00;73.10;;;;;;4981100;28;20037;-65
2021/01/24 08:38:09;;;;;;;2.70;1.80;;;1.10;73.30;;;;;;4992687;28;20034;-65
2021/01/24 08:40:36;;;;;;;3.05;1.88;;;1.10;73.30;;;;;;4992424;28;20072;-65
2021/01/24 08:43:03;;;;;;;3.78;2.05;;;1.10;73.30;;;;;;4995356;28;20034;-65
2021/01/24 08:45:30;;;;;;;3.47;1.80;;;1.10;73.10;;;;;;4993376;28;20125;-63
2021/01/24 08:47:55;;;;;;;3.22;1.92;;;1.00;73.00;;;;;;4997150;28;20034;-64
2021/01/24 08:50:21;;;;;;;3.33;1.98;;;1.00;73.10;;;;;;4997516;28;20045;-64
2021/01/24 08:52:55;;;;;;;3.55;2.58;;;1.10;73.30;;;;;;4997553;28;20107;-64
2021/01/24 08:55:20;;;;;;;2.70;2.50;;;1.10;73.20;;;;;;4979706;28;20034;-64
2021/01/24 08:57:46;;;;;;;3.22;2.53;;;1.10;73.60;;;;;;4977866;28;20615;-65
2021/01/24 09:00:13;;;;;;;5.97;3.88;;;1.10;73.70;;;;;;4987475;28;20297;-65
2021/01/24 09:02:39;;;;;;;3.03;2.72;;;1.10;73.80;;;;;;4998857;28;20530;-65
2021/01/24 09:05:08;;;;;;;5.03;3.08;;;1.20;73.80;;;;;;4996289;28;20048;-64
2021/01/24 09:07:40;;;;;;;2.90;2.15;;;1.20;73.60;;;;;;4996502;28;20038;-64
2021/01/24 09:10:20;;;;;;;3.08;2.45;;;1.20;73.40;;;;;;4997969;28;20433;-64
2021/01/24 09:12:51;;;;;;;4.78;2.40;;;1.30;74.10;;;;;;4992643;28;20046;-64
2021/01/24 09:15:19;;;;;;;3.00;1.92;;;1.30;73.40;;;;;;4980884;28;20037;-64
2021/01/24 09:17:45;;;;;;;4.47;2.03;;;1.30;73.60;;;;;;5000753;28;20038;-64
2021/01/24 09:20:11;;;;;;;2.72;1.98;;;1.30;73.60;;;;;;5000181;28;20050;-64
2021/01/24 09:22:37;;;;;;;4.28;2.42;;;1.40;73.50;;;;;;4985150;28;20045;-64
2021/01/24 09:25:05;;;;;;;5.65;1.92;;;1.40;73.40;;;;;;5001376;28;20026;-64
2021/01/24 09:27:30;;;;;;;3.58;1.83;;;1.50;73.40;;;;;;4997453;28;20069;-64
2021/01/24 09:29:56;;;;;;;3.75;2.20;;;1.50;73.40;;;;;;4982463;28;20030;-64
2021/01/24 09:32:22;;;;;;;3.10;2.60;;;1.50;73.30;;;;;;4998984;28;20453;-65
2021/01/24 09:34:47;;;;;;;3.33;2.13;;;1.60;73.00;;;;;;5000130;28;20030;-63
2021/01/24 09:37:13;;;;;;;2.80;2.35;;;1.70;73.80;;;;;;4998665;28;20030;-64
2021/01/24 09:39:38;;;;;;;2.83;2.28;;;1.70;72.70;;;;;;4999666;28;20506;-64
2021/01/24 09:42:04;;;;;;;4.38;2.60;;;1.70;72.90;;;;;;5000421;28;20092;-63
2021/01/24 09:44:32;;;;;;;3.55;2.28;;;1.70;72.90;;;;;;4996180;28;20363;-64
2021/01/24 09:46:58;;;;;;;2.88;2.10;;;1.80;72.80;;;;;;5000608;28;20038;-63
2021/01/24 09:49:23;;;;;;;2.90;2.00;;;1.80;72.50;;;;;;4999948;28;20390;-64
2021/01/24 09:51:49;;;;;;;2.30;2.10;;;1.90;72.80;;;;;;5001509;28;20038;-65
2021/01/24 09:54:16;;;;;;;3.70;2.22;;;1.90;72.30;;;;;;4984237;28;20413;-65
2021/01/24 09:56:42;;;;;;;2.90;2.10;;;2.00;72.40;;;;;;5000380;28;20033;-64
2021/01/24 09:59:08;;;;;;;5.13;2.03;;;2.00;72.50;;;;;;4998138;28;20042;-64
2021/01/24 10:01:34;;;;;;;2.22;1.70;;;2.00;72.00;;;;;;4999714;28;20558;-63
2021/01/24 10:04:00;;;;;;;2.38;2.17;;;2.10;71.80;;;;;;4999476;28;20569;-65
2021/01/24 10:06:25;;;;;;;2.40;2.00;;;2.10;71.60;;;;;;4997929;28;20049;-64
2021/01/24 10:08:51;;;;;;;2.58;1.90;;;2.10;71.70;;;;;;4980489;28;20564;-65
2021/01/24 10:11:17;;;;;;;2.70;1.73;;;2.20;71.70;;;;;;4997589;28;20027;-64
2021/01/24 10:13:43;;;;;;;5.65;2.20;;;2.30;72.00;;;;;;4998670;28;20124;-64
2021/01/24 10:16:08;;;;;;;2.80;1.92;;;2.30;72.00;;;;;;4999108;28;20121;-64
2021/01/24 10:18:34;;;;;;;3.03;2.13;;;2.40;72.10;;;;;;4998812;28;20026;-64
2021/01/24 10:21:00;;;;;;;2.22;1.70;;;2.50;72.00;;;;;;4999492;28;20731;-65
2021/01/24 10:23:26;;;;;;;3.65;1.80;;;2.60;71.70;;;;;;5000605;28;20038;-63
2021/01/24 10:25:54;;;;;;;2.08;1.70;;;2.60;71.40;;;;;;4999861;28;20034;-63
2021/01/24 10:28:20;;;;;;;2.97;1.95;;;2.70;71.00;;;;;;4981327;28;20030;-64
2021/01/24 10:30:46;;;;;;;3.17;1.80;;;2.70;70.80;;;;;;4995979;28;20042;-63
2021/01/24 10:33:13;;;;;;;2.22;1.60;;;2.80;70.80;;;;;;4997784;28;20045;-63
2021/01/24 10:35:39;;;;;;;2.45;1.90;;;2.80;70.80;;;;;;4998908;28;20041;-63
2021/01/24 10:38:05;;;;;;;3.05;1.70;;;2.80;70.60;;;;;;4998616;28;20480;-61
2021/01/24 10:40:31;;;;;;;1.60;1.50;;;2.80;70.40;;;;;;4997879;28;20099;-63
2021/01/24 10:42:58;;;;;;;3.47;1.85;;;2.80;70.30;;;;;;5000035;28;20113;-63
2021/01/24 10:45:24;;;;;;;3.10;1.80;;;2.80;70.30;;;;;;4981978;28;20033;-64
2021/01/24 10:47:51;;;;;;;2.15;1.67;;;2.80;70.30;;;;;;4982306;28;20511;-63
2021/01/24 10:50:19;;;;;;;2.75;1.80;;;2.80;70.20;;;;;;4997692;28;20034;-63
2021/01/24 10:52:45;;;;;;;4.63;1.88;;;2.80;70.30;;;;;;4999105;28;20042;-63
2021/01/24 10:55:11;;;;;;;2.58;1.85;;;2.80;70.60;;;;;;4998714;28;20041;-63
2021/01/24 10:57:38;;;;;;;4.55;1.92;;;2.80;70.60;;;;;;4981938;28;20027;-63
2021/01/24 11:00:05;;;;;;;3.15;1.73;;;2.80;70.60;;;;;;4999650;28;20045;-63
2021/01/24 11:02:31;;;;;;;1.92;1.70;;;2.80;70.50;;;;;;4999306;28;20034;-63
2021/01/24 11:04:57;;;;;;;2.85;2.00;;;2.80;71.40;;;;;;4983143;28;20544;-62
2021/01/24 11:07:23;;;;;;;1.92;1.77;;;2.80;70.70;;;;;;4999249;28;20030;-63
2021/01/24 11:09:49;;;;;;;2.95;2.03;;;2.80;70.80;;;;;;4986328;28;20040;-64
2021/01/24 11:12:14;;;;;;;4.68;2.13;;;2.80;70.80;;;;;;4994341;28;20521;-63
2021/01/24 11:14:41;;;;;;;3.40;2.47;;;2.80;70.70;;;;;;4997305;28;20121;-63
2021/01/24 11:17:07;;;;;;;4.32;3.22;;;2.90;70.60;;;;;;4997660;28;20043;-63
2021/01/24 11:19:32;;;;;;;5.57;2.40;;;2.90;70.60;;;;;;4998230;28;20552;-62
2021/01/24 11:21:58;;;;;;;2.38;1.92;;;3.00;70.90;;;;;;4981580;28;20537;-62
2021/01/24 11:24:23;;;;;;;2.03;1.65;;;3.00;70.20;;;;;;4997070;28;20038;-64
2021/01/24 11:26:50;;;;;;;2.25;1.70;;;3.10;69.80;;;;;;4997916;28;20038;-63
2021/01/24 11:29:16;;;;;;;2.08;1.58;;;3.10;70.10;;;;;;4997780;28;20418;-64
2021/01/24 11:31:41;;;;;;;1.83;1.70;;;3.10;69.80;;;;;;4981342;28;20034;-63
2021/01/24 11:34:07;;;;;;;2.92;1.80;;;3.20;69.70;;;;;;4998918;28;20022;-63
2021/01/24 11:36:33;;;;;;;2.50;1.48;;;3.20;69.30;;;;;;4987427;28;20034;-63
2021/01/24 11:38:58;;;;;;;2.22;1.67;;;3.30;69.60;;;;;;4997990;28;20145;-63
2021/01/24 11:41:24;;;;;;;1.90;1.70;;;3.30;69.80;;;;;;4998937;28;20526;-62
2021/01/24 11:43:51;;;;;;;4.30;1.88;;;3.40;70.10;;;;;;4997983;28;20037;-63
2021/01/24 11:46:17;;;;;;;4.10;1.23;;;3.50;69.60;;;;;;4998407;28;20371;-64
2021/01/24 11:48:42;;;;;;;3.20;1.67;;;3.50;69.20;;;;;;4997120;28;20041;-63
2021/01/24 11:51:08;;;;;;;3.78;1.45;;;3.60;67.60;;;;;;4998233;28;20023;-63
2021/01/24 11:53:35;;;;;;;2.83;1.80;;;3.60;67.70;;;;;;4998090;28;20152;-63
2021/01/24 11:56:01;;;;;;;1.40;1.30;;;3.60;67.20;;;;;;4998022;28;20096;-62
2021/01/24 11:58:27;;;;;;;1.63;1.40;;;3.60;67.20;;;;;;4995100;28;20125;-61
2021/01/24 12:00:53;;;;;;;3.15;1.60;;;3.70;67.50;;;;;;4997784;28;20556;-63
2021/01/24 12:03:18;;;;;;;3.25;1.67;;;3.70;67.90;;;;;;4997707;28;20084;-63
2021/01/24 12:05:44;;;;;;;2.55;1.10;;;3.70;67.70;;;;;;4997451;28;20041;-63
2021/01/24 12:08:10;;;;;;;2.53;1.30;;;3.70;67.20;;;;;;4997000;28;20042;-63
2021/01/24 12:10:35;;;;;;;1.90;1.42;;;3.70;66.80;;;;;;4978620;28;20128;-63
2021/01/24 12:13:01;;;;;;;1.67;1.50;;;3.70;66.50;;;;;;4995212;28;20513;-64
2021/01/24 12:15:26;;;;;;;2.10;1.23;;;3.70;65.80;;;;;;4998430;28;20041;-63
2021/01/24 12:17:52;;;;;;;3.47;1.83;;;3.70;65.90;;;;;;4998178;28;20118;-63
2021/01/24 12:20:18;;;;;;;4.95;1.67;;;3.70;66.50;;;;;;4980881;28;20030;-64
2021/01/24 12:22:43;;;;;;;4.97;1.77;;;3.70;65.60;;;;;;4997751;28;20034;-64
2021/01/24 12:25:10;;;;;;;3.63;1.52;;;3.70;65.20;;;;;;4996909;28;20038;-63
2021/01/24 12:27:35;;;;;;;2.63;1.67;;;3.60;65.80;;;;;;4996882;28;20089;-64
2021/01/24 12:30:01;;;;;;;5.18;1.70;;;3.60;66.10;;;;;;4996406;28;20030;-63
2021/01/24 12:32:27;;;;;;;2.22;1.50;;;3.60;66.00;;;;;;4993772;28;20729;-64
2021/01/24 12:34:53;;;;;;;3.90;1.50;;;3.60;66.00;;;;;;4994797;28;20034;-63
2021/01/24 12:37:18;;;;;;;3.15;1.65;;;3.60;66.30;;;;;;4996888;28;20031;-63
2021/01/24 12:39:44;;;;;;;1.90;1.40;;;3.60;66.10;;;;;;4997140;28;20041;-63
2021/01/24 12:42:09;;;;;;;4.28;1.50;;;3.60;66.00;;;;;;4995295;28;20034;-63
2021/01/24 12:44:35;;;;;;;2.30;1.30;;;3.70;65.90;;;;;;4980660;28;20501;-64
2021/01/24 12:47:01;;;;;;;4.82;1.40;;;3.60;65.40;;;;;;4997137;28;20038;-64
2021/01/24 12:49:26;;;;;;;2.50;1.38;;;3.70;65.90;;;;;;4996305;28;20027;-63
2021/01/24 12:51:52;;;;;;;2.03;1.13;;;3.70;65.90;;;;;;4979820;28;20038;-64
2021/01/24 12:54:17;;;;;;;2.85;1.50;;;3.70;66.50;;;;;;4995580;28;20118;-63
2021/01/24 12:56:43;;;;;;;2.53;1.63;;;3.80;66.50;;;;;;4996877;28;20375;-63
2021/01/24 12:59:08;;;;;;;2.00;1.20;;;3.80;66.00;;;;;;4995452;28;20053;-63